createdAt,value
2018-09-01T00:00:31.896Z,99.90
2018-09-01T00:03:01.106Z,99.90
2018-09-01T00:05:30.000Z,99.90
2018-09-01T00:07:58.536Z,99.90
2018-09-01T00:10:26.974Z,99.90
2018-09-01T00:12:55.389Z,99.90
2018-09-01T00:15:24.020Z,99.90
2018-09-01T00:17:52.377Z,99.90
2018-09-01T00:20:21.263Z,99.90
2018-09-01T00:22:50.011Z,99.90
2018-09-01T00:25:18.400Z,99.90
2018-09-01T00:27:46.992Z,99.90
2018-09-01T00:30:15.343Z,99.90
2018-09-01T00:32:43.772Z,99.90
2018-09-01T00:35:12.165Z,99.90
2018-09-01T00:37:46.096Z,99.90
2018-09-01T00:40:14.457Z,99.90
2018-09-01T00:42:48.406Z,99.90
2018-09-01T00:45:16.756Z,99.90
2018-09-01T00:47:45.344Z,99.90
2018-09-01T00:50:13.740Z,99.90
2018-09-01T00:52:42.112Z,99.90
2018-09-01T00:55:41.715Z,99.90
2018-09-01T00:58:10.066Z,99.90
2018-09-01T01:00:38.540Z,99.90
2018-09-01T01:03:06.935Z,99.90
2018-09-01T01:05:35.618Z,99.90
2018-09-01T01:08:04.005Z,99.90
2018-09-01T01:10:32.343Z,99.90
2018-09-01T01:13:00.736Z,99.90
2018-09-01T01:15:29.292Z,99.90
2018-09-01T01:17:57.704Z,99.90
2018-09-01T01:20:26.129Z,99.90
2018-09-01T01:22:54.748Z,99.90
2018-09-01T01:25:23.145Z,99.90
2018-09-01T01:27:52.446Z,99.90
2018-09-01T01:30:21.001Z,99.90
2018-09-01T01:32:49.381Z,99.90
2018-09-01T01:35:17.876Z,99.90
2018-09-01T01:37:46.437Z,99.90
2018-09-01T01:40:14.804Z,99.90
2018-09-01T01:42:43.233Z,99.90
2018-09-01T01:45:11.642Z,99.90
2018-09-01T01:47:41.641Z,99.90
2018-09-01T01:50:11.236Z,99.90
2018-09-01T01:52:39.801Z,99.90
2018-09-01T01:55:08.505Z,99.90
2018-09-01T01:57:42.376Z,99.90
2018-09-01T02:00:10.940Z,99.90
2018-09-01T02:02:39.378Z,99.90
2018-09-01T02:05:09.660Z,99.90
2018-09-01T02:07:39.117Z,99.90
2018-09-01T02:10:07.629Z,99.90
2018-09-01T02:12:36.068Z,99.90
2018-09-01T02:15:04.737Z,99.90
2018-09-01T02:17:33.101Z,99.90
2018-09-01T02:20:01.607Z,99.90
2018-09-01T02:22:30.235Z,99.90
2018-09-01T02:24:58.581Z,99.90
2018-09-01T02:27:27.428Z,99.90
2018-09-01T02:29:55.837Z,99.90
2018-09-01T02:32:24.198Z,99.90
2018-09-01T02:34:53.636Z,99.90
2018-09-01T02:37:22.181Z,99.90
2018-09-01T02:39:50.546Z,99.90
2018-09-01T02:42:19.224Z,99.90
2018-09-01T02:44:47.596Z,99.90
2018-09-01T02:47:15.977Z,99.90
2018-09-01T02:49:44.369Z,99.90
2018-09-01T02:52:13.109Z,99.90
2018-09-01T02:54:41.714Z,99.90
2018-09-01T02:57:10.089Z,99.90
2018-09-01T02:59:38.487Z,99.90
2018-09-01T03:02:07.037Z,99.90
2018-09-01T03:04:35.388Z,99.90
2018-09-01T03:07:03.769Z,99.90
2018-09-01T03:09:32.152Z,99.90
2018-09-01T03:12:00.873Z,99.90
2018-09-01T03:14:29.263Z,99.90
2018-09-01T03:16:57.659Z,99.90
2018-09-01T03:19:26.700Z,99.90
2018-09-01T03:21:55.377Z,99.90
2018-09-01T03:24:23.720Z,99.90
2018-09-01T03:26:52.134Z,99.90
2018-09-01T03:29:20.792Z,99.90
2018-09-01T03:31:49.173Z,99.90
2018-09-01T03:34:17.533Z,99.90
2018-09-01T03:36:46.001Z,99.90
2018-09-01T03:39:14.552Z,99.90
2018-09-01T03:41:42.978Z,99.90
2018-09-01T03:44:11.361Z,99.90
2018-09-01T03:46:39.977Z,99.90
2018-09-01T03:49:09.592Z,99.90
2018-09-01T03:51:37.972Z,99.90
2018-09-01T03:54:06.625Z,99.90
2018-09-01T03:56:35.226Z,99.90
2018-09-01T03:59:03.644Z,99.90
2018-09-01T04:01:32.017Z,99.90
2018-09-01T04:04:00.634Z,99.90
2018-09-01T04:06:29.129Z,99.90
2018-09-01T04:08:57.493Z,99.90
2018-09-01T04:11:26.052Z,99.90
2018-09-01T04:13:55.348Z,99.90
2018-09-01T04:16:23.728Z,99.90
2018-09-01T04:18:52.137Z,99.90
2018-09-01T04:21:20.500Z,99.90
2018-09-01T04:23:49.045Z,99.90
2018-09-01T04:26:17.404Z,99.90
2018-09-01T04:28:45.769Z,99.90
2018-09-01T04:31:14.403Z,99.90
2018-09-01T04:33:42.824Z,99.90
2018-09-01T04:36:11.177Z,99.90
2018-09-01T04:38:39.820Z,99.90
2018-09-01T04:41:08.181Z,99.90
2018-09-01T04:43:36.577Z,99.90
2018-09-01T04:46:05.245Z,99.90
2018-09-01T04:48:33.609Z,99.90
2018-09-01T04:51:01.972Z,99.90
2018-09-01T04:53:31.128Z,99.90
2018-09-01T04:55:59.796Z,99.90
2018-09-01T04:58:28.256Z,99.90
2018-09-01T05:00:56.706Z,99.90
2018-09-01T05:03:25.297Z,99.90
2018-09-01T05:05:53.748Z,99.90
2018-09-01T05:08:22.124Z,99.90
2018-09-01T05:10:50.656Z,99.90
2018-09-01T05:13:19.019Z,99.90
2018-09-01T05:15:47.434Z,99.90
2018-09-01T05:18:16.003Z,99.90
2018-09-01T05:20:44.361Z,99.90
2018-09-01T05:23:12.760Z,99.90
2018-09-01T05:25:41.537Z,99.90
2018-09-01T05:28:09.917Z,99.90
2018-09-01T05:30:38.378Z,99.90
2018-09-01T05:33:07.048Z,99.90
2018-09-01T05:35:35.401Z,99.90
2018-09-01T05:38:03.929Z,99.90
2018-09-01T05:40:32.569Z,99.90
2018-09-01T05:43:02.268Z,99.90
2018-09-01T05:45:30.657Z,99.90
2018-09-01T05:47:59.321Z,99.90
2018-09-01T05:50:27.856Z,99.90
2018-09-01T05:52:56.242Z,99.90
2018-09-01T05:55:25.472Z,99.90
2018-09-01T05:57:54.109Z,99.90
2018-09-01T06:00:23.342Z,99.90
2018-09-01T06:02:53.428Z,99.90
2018-09-01T06:05:21.850Z,99.90
2018-09-01T06:07:51.085Z,99.90
2018-09-01T06:10:19.469Z,99.90
2018-09-01T06:12:48.060Z,99.90
2018-09-01T06:15:16.446Z,99.90
2018-09-01T06:17:45.019Z,99.90
2018-09-01T06:20:13.320Z,99.90
2018-09-01T06:22:41.985Z,99.90
2018-09-01T06:25:10.345Z,99.90
2018-09-01T06:27:42.189Z,99.90
2018-09-01T06:30:15.549Z,99.90
2018-09-01T06:32:44.173Z,99.90
2018-09-01T06:35:12.590Z,99.90
2018-09-01T06:37:41.068Z,99.90
2018-09-01T06:40:09.410Z,99.90
2018-09-01T06:42:37.978Z,99.90
2018-09-01T06:45:06.510Z,99.90
2018-09-01T06:47:34.884Z,99.90
2018-09-01T06:50:03.905Z,99.90
2018-09-01T06:52:33.216Z,99.90
2018-09-01T06:55:01.702Z,99.90
2018-09-01T06:57:30.101Z,99.90
2018-09-01T06:59:58.498Z,99.90
2018-09-01T07:02:27.047Z,99.90
2018-09-01T07:04:55.704Z,99.90
2018-09-01T07:07:24.253Z,99.90
2018-09-01T07:09:52.632Z,99.90
2018-09-01T07:12:21.181Z,99.90
2018-09-01T07:14:49.565Z,99.90
2018-09-01T07:17:17.918Z,99.90
2018-09-01T07:19:46.364Z,99.90
2018-09-01T07:22:14.797Z,99.90
2018-09-01T07:24:43.545Z,99.90
2018-09-01T07:27:11.926Z,99.90
2018-09-01T07:29:40.304Z,99.90
2018-09-01T07:32:08.961Z,99.90
2018-09-01T07:34:37.498Z,99.90
2018-09-01T07:37:05.910Z,99.90
2018-09-01T07:39:34.572Z,99.90
2018-09-01T07:42:03.771Z,99.90
2018-09-01T07:44:32.170Z,99.90
2018-09-01T07:47:00.752Z,99.90
2018-09-01T07:49:29.132Z,99.90
2018-09-01T07:51:57.488Z,99.90
2018-09-01T07:54:26.162Z,99.90
2018-09-01T07:56:54.620Z,99.90
2018-09-01T07:59:23.000Z,99.90
2018-09-01T08:01:51.537Z,99.90
2018-09-01T08:04:19.962Z,99.90
2018-09-01T08:06:48.348Z,99.90
2018-09-01T08:09:16.729Z,99.90
2018-09-01T08:11:45.309Z,99.90
2018-09-01T08:14:13.793Z,99.90
2018-09-01T08:16:42.081Z,99.90
2018-09-01T08:19:10.701Z,99.90
2018-09-01T08:21:39.106Z,99.90
2018-09-01T08:24:07.499Z,99.90
2018-09-01T08:26:35.912Z,99.90
2018-09-01T08:29:04.830Z,99.90
2018-09-01T08:31:33.630Z,99.90
2018-09-01T08:34:01.977Z,99.90
2018-09-01T08:36:30.353Z,99.90
2018-09-01T08:38:58.768Z,99.90
2018-09-01T08:41:27.165Z,99.90
2018-09-01T08:43:55.768Z,99.90
2018-09-01T08:46:24.166Z,99.90
2018-09-01T08:48:52.529Z,99.90
2018-09-01T08:51:21.169Z,99.90
2018-09-01T08:53:49.529Z,99.90
2018-09-01T08:56:17.933Z,99.90
2018-09-01T08:58:46.464Z,99.90
2018-09-01T09:01:14.833Z,99.90
2018-09-01T09:03:43.510Z,99.90
2018-09-01T09:06:11.908Z,99.90
2018-09-01T09:08:40.264Z,99.90
2018-09-01T09:11:09.237Z,99.90
2018-09-01T09:13:37.600Z,99.90
2018-09-01T09:16:06.920Z,99.90
2018-09-01T09:18:35.325Z,99.90
2018-09-01T09:21:03.725Z,99.90
2018-09-01T09:23:32.270Z,99.90
2018-09-01T09:26:00.681Z,99.90
2018-09-01T09:28:29.057Z,99.90
2018-09-01T09:30:57.692Z,99.90
2018-09-01T09:33:26.124Z,99.90
2018-09-01T09:35:54.492Z,99.90
2018-09-01T09:38:22.901Z,99.90
2018-09-01T09:40:51.276Z,99.90
2018-09-01T09:43:19.656Z,99.90
2018-09-01T09:45:48.205Z,99.90
2018-09-01T09:48:16.764Z,99.90
2018-09-01T09:50:45.286Z,99.90
2018-09-01T09:53:13.927Z,99.90
2018-09-01T09:55:42.286Z,99.90
2018-09-01T09:58:10.687Z,99.90
2018-09-01T10:00:44.704Z,99.90
2018-09-01T10:03:13.113Z,99.90
2018-09-01T10:05:41.585Z,99.90
2018-09-01T10:08:09.928Z,99.90
2018-09-01T10:10:38.294Z,99.90
2018-09-01T10:13:07.497Z,99.90
2018-09-01T10:15:35.822Z,99.90
2018-09-01T10:18:04.180Z,99.90
2018-09-01T10:20:32.878Z,99.90
2018-09-01T10:23:01.200Z,99.90
2018-09-01T10:25:29.569Z,99.90
2018-09-01T10:27:58.011Z,99.90
2018-09-01T10:30:26.585Z,99.90
2018-09-01T10:32:55.039Z,99.90
2018-09-01T10:35:23.393Z,99.90
2018-09-01T10:37:52.209Z,99.90
2018-09-01T10:40:20.608Z,99.90
2018-09-01T10:42:48.993Z,99.90
2018-09-01T10:45:17.569Z,99.90
2018-09-01T10:47:46.062Z,99.90
2018-09-01T10:50:14.413Z,99.90
2018-09-01T10:52:42.994Z,99.90
2018-09-01T10:55:11.398Z,99.90
2018-09-01T10:57:39.794Z,99.90
2018-09-01T11:00:08.590Z,99.90
2018-09-01T11:02:37.005Z,99.90
2018-09-01T11:05:05.391Z,99.90
2018-09-01T11:07:33.937Z,99.80
2018-09-01T11:10:02.284Z,98.20
2018-09-01T11:12:30.623Z,98.70
2018-09-01T11:14:59.064Z,98.00
2018-09-01T11:17:27.841Z,96.20
2018-09-01T11:19:56.239Z,96.30
2018-09-01T11:22:24.665Z,94.60
2018-09-01T11:24:53.074Z,93.20
2018-09-01T11:27:21.708Z,90.50
2018-09-01T11:29:50.073Z,90.30
2018-09-01T11:32:18.629Z,88.50
2018-09-01T11:34:47.204Z,90.60
2018-09-01T11:37:15.584Z,91.50
2018-09-01T11:39:43.954Z,91.10
2018-09-01T11:42:12.337Z,90.40
2018-09-01T11:44:40.772Z,90.90
2018-09-01T11:47:09.404Z,90.50
2018-09-01T11:49:37.771Z,87.90
2018-09-01T11:52:06.251Z,80.90
2018-09-01T11:54:34.804Z,80.30
2018-09-01T11:57:03.193Z,79.00
2018-09-01T11:59:31.541Z,82.30
2018-09-01T12:02:00.121Z,80.90
2018-09-01T12:04:28.536Z,82.50
2018-09-01T12:06:57.109Z,81.40
2018-09-01T12:09:25.842Z,81.80
2018-09-01T12:11:54.157Z,79.80
2018-09-01T12:14:22.501Z,77.50
2018-09-01T12:16:50.941Z,80.00
2018-09-01T12:19:19.565Z,79.70
2018-09-01T12:21:48.120Z,82.90
2018-09-01T12:24:16.578Z,81.90
2018-09-01T12:26:45.608Z,83.80
2018-09-01T12:29:13.965Z,83.60
2018-09-01T12:31:42.304Z,82.40
2018-09-01T12:34:10.913Z,81.80
2018-09-01T12:36:39.315Z,80.90
2018-09-01T12:39:07.708Z,82.60
2018-09-01T12:41:36.110Z,82.10
2018-09-01T12:44:04.817Z,80.00
2018-09-01T12:46:33.174Z,81.50
2018-09-01T12:49:01.545Z,80.00
2018-09-01T12:51:30.150Z,80.20
2018-09-01T12:53:58.517Z,79.40
2018-09-01T12:56:27.145Z,79.30
2018-09-01T12:58:55.552Z,77.50
2018-09-01T13:01:24.157Z,78.90
2018-09-01T13:03:52.505Z,77.60
2018-09-01T13:06:20.888Z,76.10
2018-09-01T13:08:49.373Z,76.30
2018-09-01T13:11:17.991Z,78.50
2018-09-01T13:13:46.340Z,76.60
2018-09-01T13:16:14.762Z,74.00
2018-09-01T13:18:43.156Z,74.50
2018-09-01T13:21:11.510Z,73.40
2018-09-01T13:23:40.982Z,75.00
2018-09-01T13:26:09.381Z,72.70
2018-09-01T13:28:37.733Z,72.60
2018-09-01T13:31:06.348Z,71.90
2018-09-01T13:33:34.877Z,71.30
2018-09-01T13:36:03.268Z,72.80
2018-09-01T13:38:31.865Z,73.10
2018-09-01T13:41:00.277Z,73.50
2018-09-01T13:43:28.659Z,73.60
2018-09-01T13:45:57.276Z,73.80
2018-09-01T13:48:25.703Z,73.20
2018-09-01T13:50:54.148Z,72.40
2018-09-01T13:53:22.580Z,72.10
2018-09-01T13:55:50.938Z,70.90
2018-09-01T13:58:19.593Z,70.10
2018-09-01T14:00:49.218Z,72.60
2018-09-01T14:03:17.641Z,72.80
2018-09-01T14:05:46.373Z,72.30
2018-09-01T14:08:14.805Z,71.40
2018-09-01T14:10:43.161Z,71.90
2018-09-01T14:13:11.748Z,77.20
2018-09-01T14:15:41.012Z,77.10
2018-09-01T14:18:09.465Z,76.50
2018-09-01T14:20:38.091Z,79.00
2018-09-01T14:23:06.540Z,75.10
2018-09-01T14:25:34.944Z,76.10
2018-09-01T14:28:03.813Z,75.40
2018-09-01T14:30:32.169Z,73.70
2018-09-01T14:33:00.564Z,74.20
2018-09-01T14:35:28.968Z,73.10
2018-09-01T14:37:57.332Z,74.30
2018-09-01T14:40:25.985Z,71.90
2018-09-01T14:42:54.413Z,74.40
2018-09-01T14:45:22.793Z,76.00
2018-09-01T14:47:51.221Z,77.80
2018-09-01T14:50:19.848Z,78.50
2018-09-01T14:52:48.232Z,80.20
2018-09-01T14:55:16.656Z,83.60
2018-09-01T14:57:45.273Z,83.00
2018-09-01T15:00:13.861Z,80.00
2018-09-01T15:02:42.232Z,82.30
2018-09-01T15:05:10.634Z,82.40
2018-09-01T15:07:39.210Z,80.00
2018-09-01T15:10:07.846Z,80.70
2018-09-01T15:12:36.209Z,81.80
2018-09-01T15:15:04.761Z,81.80
2018-09-01T15:17:33.547Z,82.90
2018-09-01T15:20:02.433Z,84.60
2018-09-01T15:22:30.801Z,83.50
2018-09-01T15:24:59.221Z,84.60
2018-09-01T15:27:27.924Z,81.90
2018-09-01T15:29:56.441Z,83.60
2018-09-01T15:32:24.872Z,83.50
2018-09-01T15:34:53.455Z,83.20
2018-09-01T15:37:21.808Z,86.20
2018-09-01T15:39:50.317Z,84.30
2018-09-01T15:42:18.945Z,84.80
2018-09-01T15:44:47.394Z,84.80
2018-09-01T15:47:15.740Z,84.30
2018-09-01T15:49:44.413Z,85.20
2018-09-01T15:52:13.595Z,85.80
2018-09-01T15:54:42.001Z,85.70
2018-09-01T15:57:10.604Z,86.30
2018-09-01T15:59:38.960Z,86.00
2018-09-01T16:02:07.556Z,86.00
2018-09-01T16:04:36.035Z,87.90
2018-09-01T16:07:04.964Z,86.90
2018-09-01T16:09:33.328Z,89.80
2018-09-01T16:12:01.721Z,88.80
2018-09-01T16:14:30.300Z,89.40
2018-09-01T16:16:58.992Z,89.10
2018-09-01T16:19:27.485Z,88.50
2018-09-01T16:21:55.988Z,90.30
2018-09-01T16:24:24.553Z,90.40
2018-09-01T16:26:52.965Z,90.40
2018-09-01T16:29:21.345Z,90.70
2018-09-01T16:31:49.721Z,91.10
2018-09-01T16:34:18.833Z,90.90
2018-09-01T16:36:48.137Z,90.90
2018-09-01T16:39:16.685Z,90.40
2018-09-01T16:41:45.315Z,90.40
2018-09-01T16:44:13.781Z,90.50
2018-09-01T16:46:42.117Z,90.00
2018-09-01T16:49:10.737Z,89.80
2018-09-01T16:51:39.205Z,90.00
2018-09-01T16:54:07.661Z,90.50
2018-09-01T16:56:36.329Z,90.00
2018-09-01T16:59:04.756Z,89.70
2018-09-01T17:01:33.151Z,90.00
2018-09-01T17:04:01.835Z,90.20
2018-09-01T17:06:30.226Z,90.10
2018-09-01T17:08:58.596Z,90.40
2018-09-01T17:11:27.023Z,90.10
2018-09-01T17:13:56.010Z,90.00
2018-09-01T17:16:24.401Z,90.40
2018-09-01T17:18:52.736Z,90.50
2018-09-01T17:21:21.209Z,90.50
2018-09-01T17:23:49.772Z,91.30
2018-09-01T17:26:18.952Z,91.00
2018-09-01T17:28:47.297Z,91.20
2018-09-01T17:31:15.725Z,91.50
2018-09-01T17:33:44.373Z,91.30
2018-09-01T17:36:12.717Z,91.60
2018-09-01T17:38:41.097Z,91.40
2018-09-01T17:41:09.558Z,91.60
2018-09-01T17:43:37.924Z,91.80
2018-09-01T17:46:06.392Z,91.90
2018-09-01T17:48:34.982Z,91.80
2018-09-01T17:51:03.391Z,92.30
2018-09-01T17:53:31.811Z,92.80
2018-09-01T17:56:00.292Z,93.00
2018-09-01T17:58:29.008Z,93.80
2018-09-01T18:00:57.425Z,93.90
2018-09-01T18:03:25.836Z,94.80
2018-09-01T18:05:54.252Z,94.80
2018-09-01T18:08:22.852Z,95.40
2018-09-01T18:15:50.271Z,96.50
2018-09-01T18:18:18.655Z,97.10
2018-09-01T18:20:47.021Z,97.90
2018-09-01T18:23:15.720Z,98.30
2018-09-01T18:25:44.181Z,97.90
2018-09-01T18:28:12.536Z,99.20
2018-09-01T18:30:41.204Z,99.90
2018-09-01T18:33:09.558Z,99.80
2018-09-01T18:35:37.901Z,99.90
2018-09-01T18:38:06.580Z,99.90
2018-09-01T18:40:34.977Z,99.90
2018-09-01T18:43:03.376Z,99.90
2018-09-01T18:45:31.822Z,99.90
2018-09-01T18:48:00.226Z,99.90
2018-09-01T18:50:28.865Z,99.90
2018-09-01T18:52:57.460Z,99.90
2018-09-01T18:55:25.916Z,99.90
2018-09-01T18:57:54.576Z,99.90
2018-09-01T19:00:22.964Z,99.90
2018-09-01T19:02:51.422Z,99.90
2018-09-01T19:05:19.987Z,99.90
2018-09-01T19:07:48.382Z,99.90
2018-09-01T19:10:16.989Z,99.90
2018-09-01T19:12:45.384Z,99.90
2018-09-01T19:15:13.765Z,99.90
2018-09-01T19:17:42.414Z,99.90
2018-09-01T19:20:10.840Z,99.90
2018-09-01T19:22:39.577Z,99.90
2018-09-01T19:25:08.459Z,99.90
2018-09-01T19:27:36.905Z,99.90
2018-09-01T19:30:05.578Z,99.90
2018-09-01T19:32:34.102Z,99.90
2018-09-01T19:35:02.524Z,99.90
2018-09-01T19:37:31.196Z,99.90
2018-09-01T19:39:59.577Z,99.90
2018-09-01T19:42:28.386Z,99.90
2018-09-01T19:44:56.820Z,99.90
2018-09-01T19:47:25.528Z,99.90
2018-09-01T19:50:00.818Z,99.90
2018-09-01T19:52:29.510Z,99.90
2018-09-01T19:54:57.922Z,99.90
2018-09-01T19:57:26.514Z,99.90
2018-09-01T19:59:55.231Z,99.90
2018-09-01T20:02:23.689Z,99.90
2018-09-01T20:04:52.161Z,99.90
2018-09-01T20:07:20.744Z,99.90
2018-09-01T20:09:49.098Z,99.90
2018-09-01T20:12:17.517Z,99.90
2018-09-01T20:14:46.137Z,99.90
2018-09-01T20:17:14.520Z,99.90
2018-09-01T20:19:42.893Z,99.90
2018-09-01T20:22:11.557Z,99.90
2018-09-01T20:24:39.957Z,99.90
2018-09-01T20:27:08.361Z,99.90
2018-09-01T20:29:37.080Z,99.90
2018-09-01T20:32:05.680Z,99.90
2018-09-01T20:34:34.053Z,99.90
2018-09-01T20:37:02.698Z,99.90
2018-09-01T20:39:31.081Z,99.90
2018-09-01T20:41:59.486Z,99.90
2018-09-01T20:44:28.041Z,99.90
2018-09-01T20:46:56.496Z,99.90
2018-09-01T20:49:24.877Z,99.90
2018-09-01T20:51:53.563Z,99.90
2018-09-01T20:54:21.943Z,99.90
2018-09-01T20:56:50.381Z,99.90
2018-09-01T20:59:19.036Z,99.90
2018-09-01T21:01:47.412Z,99.90
2018-09-01T21:04:15.859Z,99.90
2018-09-01T21:06:44.444Z,99.90
2018-09-01T21:09:12.804Z,99.90
2018-09-01T21:11:41.877Z,99.90
2018-09-01T21:14:10.993Z,99.90
2018-09-01T21:16:39.562Z,99.90
2018-09-01T21:19:08.333Z,99.90
2018-09-01T21:21:36.810Z,99.90
2018-09-01T21:24:05.333Z,99.90
2018-09-01T21:26:33.989Z,99.90
2018-09-01T21:29:02.369Z,99.90
2018-09-01T21:31:30.787Z,99.90
2018-09-01T21:33:59.251Z,99.90
2018-09-01T21:36:27.947Z,99.90
2018-09-01T21:38:56.383Z,99.90
2018-09-01T21:41:25.252Z,99.90
2018-09-01T21:43:53.916Z,99.90
2018-09-01T21:46:22.424Z,99.90
2018-09-01T21:48:50.875Z,99.90
2018-09-01T21:51:19.392Z,99.90
2018-09-01T21:53:48.045Z,99.90
2018-09-01T21:56:16.487Z,99.90
2018-09-01T21:58:44.872Z,99.90
2018-09-01T22:01:19.048Z,99.90
2018-09-01T22:03:47.893Z,99.90
2018-09-01T22:06:17.368Z,99.90
2018-09-01T22:08:46.010Z,99.90
2018-09-01T22:11:14.526Z,99.90
2018-09-01T22:13:42.924Z,99.90
2018-09-01T22:16:11.716Z,99.90
2018-09-01T22:18:40.120Z,99.90
2018-09-01T22:21:08.805Z,99.90
2018-09-01T22:23:37.754Z,99.90
2018-09-01T22:26:06.543Z,99.90
2018-09-01T22:28:35.373Z,99.90
2018-09-01T22:31:03.903Z,99.90
2018-09-01T22:33:32.288Z,99.90
2018-09-01T22:36:01.187Z,99.90
2018-09-01T22:38:29.773Z,99.90
2018-09-01T22:40:58.210Z,99.90
2018-09-01T22:43:26.746Z,99.90
2018-09-01T22:45:56.679Z,99.90
2018-09-01T22:48:25.968Z,99.90
2018-09-01T22:50:54.365Z,99.90
2018-09-01T22:53:22.941Z,99.90
2018-09-01T22:55:51.373Z,99.90
2018-09-01T22:58:19.769Z,99.90
2018-09-01T23:00:48.409Z,99.90
2018-09-01T23:03:16.796Z,99.90
2018-09-01T23:05:45.242Z,99.90
2018-09-01T23:08:13.961Z,99.90
2018-09-01T23:10:42.406Z,99.90
2018-09-01T23:13:10.788Z,99.90
2018-09-01T23:15:39.372Z,99.90
2018-09-01T23:18:07.740Z,99.90
2018-09-01T23:20:36.232Z,99.90
2018-09-01T23:23:04.697Z,99.90
2018-09-01T23:25:33.086Z,99.90
2018-09-01T23:28:01.665Z,99.90
2018-09-01T23:30:30.094Z,99.90
2018-09-01T23:32:58.655Z,99.90
2018-09-01T23:35:27.276Z,99.90
2018-09-01T23:37:56.606Z,99.90
2018-09-01T23:40:25.056Z,99.90
2018-09-01T23:42:53.721Z,99.90
2018-09-01T23:45:22.115Z,99.90
2018-09-01T23:47:50.513Z,99.90
2018-09-01T23:50:18.969Z,99.90
2018-09-01T23:52:47.417Z,99.90
2018-09-01T23:55:16.137Z,99.90
2018-09-01T23:57:44.620Z,99.90
